createdAt,value
2023-03-22T00:00:31.300Z,10.92
2023-03-22T00:01:31.270Z,10.89
2023-03-22T00:02:31.305Z,10.86
2023-03-22T00:03:31.264Z,10.89
2023-03-22T00:04:31.266Z,10.97
2023-03-22T00:05:31.253Z,10.89
2023-03-22T00:06:31.209Z,10.86
2023-03-22T00:07:31.200Z,10.81
2023-03-22T00:08:31.191Z,10.86
2023-03-22T00:09:31.180Z,10.94
2023-03-22T00:10:31.170Z,10.87
2023-03-22T00:11:31.200Z,10.76
2023-03-22T00:12:31.167Z,10.82
2023-03-22T00:13:31.129Z,10.84
2023-03-22T00:14:31.121Z,10.86
2023-03-22T00:15:31.118Z,10.82
2023-03-22T00:16:31.157Z,10.72
2023-03-22T00:17:31.120Z,10.74
2023-03-22T00:18:31.080Z,10.74
2023-03-22T00:19:31.073Z,10.72
2023-03-22T00:20:31.061Z,10.74
2023-03-22T00:21:31.061Z,10.68
2023-03-22T00:22:31.028Z,10.74
2023-03-22T00:23:31.046Z,10.79
2023-03-22T00:24:31.019Z,10.87
2023-03-22T00:25:31.006Z,10.84
2023-03-22T00:26:30.993Z,10.89
2023-03-22T00:27:30.979Z,10.92
2023-03-22T00:28:30.989Z,10.93
2023-03-22T00:29:30.960Z,10.92
2023-03-22T00:30:30.943Z,10.89
2023-03-22T00:31:30.977Z,10.87
2023-03-22T00:32:30.946Z,10.84
2023-03-22T00:33:30.911Z,10.82
2023-03-22T00:34:30.953Z,10.89
2023-03-22T00:35:30.920Z,10.90
2023-03-22T00:36:30.885Z,10.82
2023-03-22T00:37:30.870Z,10.79
2023-03-22T00:38:41.640Z,10.82
2023-03-22T00:39:31.877Z,10.86
2023-03-22T00:40:30.834Z,10.86
2023-03-22T00:41:30.825Z,10.90
2023-03-22T00:42:30.817Z,10.87
2023-03-22T00:43:30.801Z,10.82
2023-03-22T00:44:30.790Z,10.89
2023-03-22T00:45:30.810Z,10.81
2023-03-22T00:46:30.827Z,10.79
2023-03-22T00:47:30.761Z,10.69
2023-03-22T00:48:30.743Z,10.71
2023-03-22T00:49:30.731Z,10.60
2023-03-22T00:50:30.723Z,10.63
2023-03-22T00:51:30.742Z,10.57
2023-03-22T00:52:30.714Z,10.60
2023-03-22T00:53:30.696Z,10.63
2023-03-22T00:54:30.684Z,10.61
2023-03-22T00:55:30.671Z,10.68
2023-03-22T00:56:30.662Z,10.67
2023-03-22T00:57:30.669Z,10.64
2023-03-22T00:58:30.636Z,10.61
2023-03-22T00:59:30.635Z,10.53
2023-03-22T01:00:30.611Z,10.51
2023-03-22T01:01:30.632Z,10.51
2023-03-22T01:02:30.628Z,10.54
2023-03-22T01:03:30.599Z,10.56
2023-03-22T01:04:30.573Z,10.56
2023-03-22T01:05:30.560Z,10.61
2023-03-22T01:06:30.549Z,10.68
2023-03-22T01:07:30.532Z,10.72
2023-03-22T01:08:30.550Z,10.69
2023-03-22T01:09:30.519Z,10.71
2023-03-22T01:10:30.506Z,10.71
2023-03-22T01:11:30.488Z,10.74
2023-03-22T01:12:30.477Z,10.71
2023-03-22T01:13:30.491Z,10.76
2023-03-22T01:14:30.468Z,10.68
2023-03-22T01:15:30.459Z,10.61
2023-03-22T01:16:30.484Z,10.64
2023-03-22T01:17:30.427Z,10.74
2023-03-22T01:18:31.177Z,10.75
2023-03-22T01:19:30.427Z,10.76
2023-03-22T01:20:31.157Z,10.69
2023-03-22T01:21:30.384Z,10.61
2023-03-22T01:22:30.370Z,10.72
2023-03-22T01:23:30.357Z,10.79
2023-03-22T01:24:30.341Z,10.82
2023-03-22T01:25:30.357Z,10.76
2023-03-22T01:26:30.317Z,10.68
2023-03-22T01:27:30.313Z,10.63
2023-03-22T01:28:30.302Z,10.72
2023-03-22T01:29:30.320Z,10.74
2023-03-22T01:30:30.336Z,10.69
2023-03-22T01:31:30.306Z,10.61
2023-03-22T01:32:30.256Z,10.64
2023-03-22T01:33:30.247Z,10.64
2023-03-22T01:34:30.224Z,10.67
2023-03-22T01:35:30.251Z,10.68
2023-03-22T01:36:30.209Z,10.61
2023-03-22T01:37:30.216Z,10.61
2023-03-22T01:38:30.186Z,10.69
2023-03-22T01:39:30.179Z,10.68
2023-03-22T01:40:30.174Z,10.60
2023-03-22T01:41:30.158Z,10.59
2023-03-22T01:42:30.168Z,10.67
2023-03-22T01:43:30.142Z,10.68
2023-03-22T01:44:30.128Z,10.63
2023-03-22T01:45:30.118Z,10.60
2023-03-22T01:46:30.124Z,10.56
2023-03-22T01:47:30.096Z,10.51
2023-03-22T01:48:30.118Z,10.49
2023-03-22T01:49:30.084Z,10.46
2023-03-22T01:50:30.059Z,10.40
2023-03-22T01:51:30.050Z,10.44
2023-03-22T01:52:30.037Z,10.42
2023-03-22T01:53:30.034Z,10.49
2023-03-22T01:54:30.033Z,10.46
2023-03-22T01:55:30.009Z,10.44
2023-03-22T01:56:30.000Z,10.49
2023-03-22T01:57:29.989Z,10.46
2023-03-22T01:58:29.972Z,10.41
2023-03-22T01:59:29.962Z,10.48
2023-03-22T02:00:29.959Z,10.56
2023-03-22T02:01:30.014Z,10.56
2023-03-22T02:02:29.945Z,10.56
2023-03-22T02:03:29.920Z,10.60
2023-03-22T02:04:29.900Z,10.56
2023-03-22T02:05:29.910Z,10.53
2023-03-22T02:06:29.885Z,10.54
2023-03-22T02:07:29.870Z,10.64
2023-03-22T02:08:29.858Z,10.75
2023-03-22T02:09:29.858Z,10.81
2023-03-22T02:10:29.843Z,10.86
2023-03-22T02:11:29.839Z,10.87
2023-03-22T02:12:29.815Z,10.75
2023-03-22T02:13:29.799Z,10.79
2023-03-22T02:14:29.790Z,10.69
2023-03-22T02:15:29.861Z,10.82
2023-03-22T02:16:29.793Z,10.89
2023-03-22T02:17:29.759Z,10.81
2023-03-22T02:18:29.749Z,10.84
2023-03-22T02:19:29.742Z,10.79
2023-03-22T02:20:29.728Z,10.79
2023-03-22T02:21:29.726Z,10.71
2023-03-22T02:22:29.719Z,10.69
2023-03-22T02:23:29.698Z,10.72
2023-03-22T02:24:29.689Z,10.69
2023-03-22T02:25:29.669Z,10.61
2023-03-22T02:26:29.663Z,10.56
2023-03-22T02:27:29.670Z,10.59
2023-03-22T02:28:29.628Z,10.59
2023-03-22T02:29:29.626Z,10.51
2023-03-22T02:30:29.608Z,10.56
2023-03-22T02:31:29.703Z,10.53
2023-03-22T02:32:29.591Z,10.42
2023-03-22T02:33:29.683Z,10.46
2023-03-22T02:34:29.568Z,10.46
2023-03-22T02:35:29.622Z,10.46
2023-03-22T02:36:29.545Z,10.54
2023-03-22T02:37:29.540Z,10.48
2023-03-22T02:38:29.550Z,10.46
2023-03-22T02:39:29.522Z,10.49
2023-03-22T02:40:29.502Z,10.51
2023-03-22T02:41:29.505Z,10.51
2023-03-22T02:42:29.481Z,10.38
2023-03-22T02:43:29.468Z,10.40
2023-03-22T02:44:29.477Z,10.48
2023-03-22T02:45:29.448Z,10.44
2023-03-22T02:46:29.467Z,10.31
2023-03-22T02:47:29.427Z,10.35
2023-03-22T02:48:29.422Z,10.41
2023-03-22T02:49:29.415Z,10.35
2023-03-22T02:50:29.406Z,10.41
2023-03-22T02:51:29.377Z,10.38
2023-03-22T02:52:29.375Z,10.33
2023-03-22T02:53:29.357Z,10.33
2023-03-22T02:54:29.348Z,10.25
2023-03-22T02:55:29.356Z,10.35
2023-03-22T02:56:29.327Z,10.34
2023-03-22T02:57:29.315Z,10.33
2023-03-22T02:58:29.307Z,10.38
2023-03-22T02:59:29.297Z,10.38
2023-03-22T03:00:29.309Z,10.35
2023-03-22T03:01:29.290Z,10.34
2023-03-22T03:02:29.260Z,10.37
2023-03-22T03:03:29.274Z,10.34
2023-03-22T03:04:29.241Z,10.38
2023-03-22T03:05:29.230Z,10.42
2023-03-22T03:06:29.228Z,10.40
2023-03-22T03:07:29.216Z,10.33
2023-03-22T03:08:29.198Z,10.46
2023-03-22T03:09:29.176Z,10.42
2023-03-22T03:10:29.174Z,10.46
2023-03-22T03:11:29.161Z,10.41
2023-03-22T03:12:29.151Z,10.40
2023-03-22T03:13:29.153Z,10.46
2023-03-22T03:14:29.125Z,10.48
2023-03-22T03:15:29.117Z,10.56
2023-03-22T03:16:29.240Z,10.44
2023-03-22T03:17:29.096Z,10.38
2023-03-22T03:18:29.078Z,10.37
2023-03-22T03:19:29.076Z,10.30
2023-03-22T03:20:36.155Z,10.44
2023-03-22T03:21:29.044Z,10.49
2023-03-22T03:22:29.032Z,10.53
2023-03-22T03:23:29.028Z,10.51
2023-03-22T03:24:29.044Z,10.56
2023-03-22T03:25:29.004Z,10.49
2023-03-22T03:26:28.992Z,10.41
2023-03-22T03:27:28.980Z,10.44
2023-03-22T03:28:28.974Z,10.51
2023-03-22T03:29:28.955Z,10.46
2023-03-22T03:30:28.989Z,10.53
2023-03-22T03:31:28.974Z,10.46
2023-03-22T03:32:28.935Z,10.37
2023-03-22T03:33:28.922Z,10.41
2023-03-22T03:34:28.921Z,10.42
2023-03-22T03:35:28.963Z,10.37
2023-03-22T03:36:28.882Z,10.38
2023-03-22T03:37:28.901Z,10.34
2023-03-22T03:38:28.876Z,10.38
2023-03-22T03:39:28.857Z,10.41
2023-03-22T03:40:28.855Z,10.37
2023-03-22T03:41:28.872Z,10.30
2023-03-22T03:42:28.819Z,10.31
2023-03-22T03:43:28.799Z,10.35
2023-03-22T03:44:28.793Z,10.38
2023-03-22T03:45:28.816Z,10.40
2023-03-22T03:46:28.763Z,10.44
2023-03-22T03:47:28.785Z,10.48
2023-03-22T03:48:28.763Z,10.42
2023-03-22T03:49:28.735Z,10.42
2023-03-22T03:50:28.735Z,10.44
2023-03-22T03:51:28.717Z,10.33
2023-03-22T03:52:28.705Z,10.38
2023-03-22T03:53:28.721Z,10.40
2023-03-22T03:54:28.683Z,10.40
2023-03-22T03:55:28.686Z,10.40
2023-03-22T03:56:28.688Z,10.37
2023-03-22T03:57:28.654Z,10.38
2023-03-22T03:58:28.655Z,10.38
2023-03-22T03:59:28.645Z,10.38
2023-03-22T04:00:28.627Z,10.35
2023-03-22T04:01:28.605Z,10.25
2023-03-22T04:02:28.682Z,10.34
2023-03-22T04:03:28.594Z,10.28
2023-03-22T04:04:28.677Z,10.34
2023-03-22T04:05:28.590Z,10.35
2023-03-22T04:06:28.546Z,10.38
2023-03-22T04:07:28.536Z,10.37
2023-03-22T04:08:28.525Z,10.33
2023-03-22T04:09:28.515Z,10.28
2023-03-22T04:10:28.504Z,10.26
2023-03-22T04:11:28.672Z,10.33
2023-03-22T04:12:28.507Z,10.31
2023-03-22T04:13:28.483Z,10.30
2023-03-22T04:14:28.467Z,10.35
2023-03-22T04:15:28.445Z,10.37
2023-03-22T04:16:28.443Z,10.33
2023-03-22T04:17:28.449Z,10.37
2023-03-22T04:18:28.435Z,10.31
2023-03-22T04:19:28.406Z,10.15
2023-03-22T04:20:28.427Z,10.19
2023-03-22T04:21:28.396Z,10.12
2023-03-22T04:22:28.374Z,10.13
2023-03-22T04:23:28.383Z,10.15
2023-03-22T04:24:28.366Z,10.19
2023-03-22T04:25:28.335Z,10.19
2023-03-22T04:26:28.328Z,10.17
2023-03-22T04:27:28.316Z,10.17
2023-03-22T04:28:28.337Z,10.15
2023-03-22T04:29:28.285Z,10.20
2023-03-22T04:30:28.288Z,10.25
2023-03-22T04:31:28.338Z,10.25
2023-03-22T04:32:28.254Z,10.25
2023-03-22T04:33:28.260Z,10.16
2023-03-22T04:34:28.294Z,10.20
2023-03-22T04:35:28.289Z,10.16
2023-03-22T04:36:28.213Z,10.22
2023-03-22T04:37:28.200Z,10.12
2023-03-22T04:38:28.196Z,10.16
2023-03-22T04:39:28.173Z,10.22
2023-03-22T04:40:28.233Z,10.10
2023-03-22T04:41:29.927Z,10.10
2023-03-22T04:42:28.164Z,10.07
2023-03-22T04:43:28.199Z,10.09
2023-03-22T04:44:28.156Z,10.05
2023-03-22T04:45:28.104Z,10.09
2023-03-22T04:46:28.158Z,10.10
2023-03-22T04:47:28.086Z,10.09
2023-03-22T04:48:28.170Z,10.13
2023-03-22T04:49:28.072Z,10.12
2023-03-22T04:50:28.071Z,10.04
2023-03-22T04:51:28.066Z,10.04
2023-03-22T04:52:28.088Z,10.04
2023-03-22T04:53:28.022Z,9.92
2023-03-22T04:54:28.062Z,9.86
2023-03-22T04:55:28.008Z,9.98
2023-03-22T04:56:28.016Z,10.07
2023-03-22T04:57:27.982Z,10.10
2023-03-22T04:58:28.029Z,10.09
2023-03-22T04:59:28.013Z,10.05
2023-03-22T05:00:27.971Z,10.01
2023-03-22T05:01:27.977Z,9.91
2023-03-22T05:02:27.957Z,9.89
2023-03-22T05:03:27.924Z,9.87
2023-03-22T05:04:27.937Z,9.86
2023-03-22T05:05:27.906Z,9.83
2023-03-22T05:06:27.889Z,9.66
2023-03-22T05:07:27.871Z,9.77
2023-03-22T05:08:27.860Z,9.82
2023-03-22T05:09:27.841Z,9.82
2023-03-22T05:10:27.864Z,9.82
2023-03-22T05:11:27.834Z,9.82
2023-03-22T05:12:27.812Z,9.82
2023-03-22T05:13:27.802Z,9.82
2023-03-22T05:14:27.842Z,9.82
2023-03-22T05:15:27.770Z,9.80
2023-03-22T05:16:27.894Z,9.76
2023-03-22T05:17:27.771Z,9.73
2023-03-22T05:18:27.763Z,9.68
2023-03-22T05:19:27.733Z,9.59
2023-03-22T05:20:27.724Z,9.59
2023-03-22T05:21:27.706Z,9.58
2023-03-22T05:22:27.718Z,9.54
2023-03-22T05:23:27.683Z,9.48
2023-03-22T05:24:27.678Z,9.50
2023-03-22T05:25:27.665Z,9.43
2023-03-22T05:26:27.681Z,9.37
2023-03-22T05:27:27.632Z,9.26
2023-03-22T05:28:27.657Z,9.34
2023-03-22T05:29:27.619Z,9.41
2023-03-22T05:30:27.600Z,9.41
2023-03-22T05:31:27.607Z,9.43
2023-03-22T05:32:27.580Z,9.47
2023-03-22T05:33:27.601Z,9.50
2023-03-22T05:34:27.567Z,9.48
2023-03-22T05:35:27.578Z,9.48
2023-03-22T05:36:27.531Z,9.51
2023-03-22T05:37:27.529Z,9.44
2023-03-22T05:38:27.518Z,9.41
2023-03-22T05:39:27.581Z,9.50
2023-03-22T05:40:27.515Z,9.55
2023-03-22T05:41:27.474Z,9.48
2023-03-22T05:42:27.465Z,9.37
2023-03-22T05:43:27.464Z,9.44
2023-03-22T05:44:27.465Z,9.44
2023-03-22T05:45:27.487Z,9.46
2023-03-22T05:46:27.491Z,9.43
2023-03-22T05:47:27.403Z,9.50
2023-03-22T05:48:27.404Z,9.51
2023-03-22T05:49:27.408Z,9.50
2023-03-22T05:50:27.386Z,9.64
2023-03-22T05:51:27.417Z,9.56
2023-03-22T05:52:27.357Z,9.59
2023-03-22T05:53:27.356Z,9.68
2023-03-22T05:54:27.350Z,9.80
2023-03-22T05:55:27.337Z,9.82
2023-03-22T05:56:27.319Z,9.89
2023-03-22T05:57:27.317Z,9.86
2023-03-22T05:58:27.305Z,9.87
2023-03-22T05:59:27.276Z,9.84
2023-03-22T06:00:27.265Z,9.89
2023-03-22T06:01:27.265Z,9.98
2023-03-22T06:02:27.286Z,9.95
2023-03-22T06:03:27.294Z,9.95
2023-03-22T06:04:27.225Z,9.99
2023-03-22T06:05:27.238Z,10.09
2023-03-22T06:06:27.209Z,10.15
2023-03-22T06:07:27.199Z,10.22
2023-03-22T06:08:27.206Z,10.17
2023-03-22T06:09:27.165Z,10.16
2023-03-22T06:10:27.167Z,10.23
2023-03-22T06:11:27.147Z,10.31
2023-03-22T06:12:29.606Z,10.30
2023-03-22T06:13:27.192Z,10.30
2023-03-22T06:14:27.137Z,10.35
2023-03-22T06:15:27.106Z,10.44
2023-03-22T06:16:27.132Z,10.46
2023-03-22T06:17:27.080Z,10.44
2023-03-22T06:18:27.076Z,10.44
2023-03-22T06:19:27.123Z,10.48
2023-03-22T06:20:27.074Z,10.56
2023-03-22T06:21:27.027Z,10.61
2023-03-22T06:22:27.040Z,10.68
2023-03-22T06:23:27.025Z,10.69
2023-03-22T06:24:27.002Z,10.71
2023-03-22T06:25:27.028Z,10.72
2023-03-22T06:26:26.978Z,10.76
2023-03-22T06:27:26.969Z,10.78
2023-03-22T06:28:26.959Z,10.89
2023-03-22T06:29:26.989Z,10.89
2023-03-22T06:30:26.998Z,10.92
2023-03-22T06:31:26.934Z,10.96
2023-03-22T06:32:26.912Z,11.10
2023-03-22T06:33:26.891Z,11.11
2023-03-22T06:34:26.882Z,11.19
2023-03-22T06:35:26.896Z,11.30
2023-03-22T06:36:26.887Z,11.43
2023-03-22T06:37:26.849Z,11.55
2023-03-22T06:38:26.838Z,11.78
2023-03-22T06:39:26.831Z,12.15
2023-03-22T06:40:26.819Z,12.65
2023-03-22T06:41:26.798Z,13.03
2023-03-22T06:42:26.819Z,13.59
2023-03-22T06:43:26.774Z,13.78
2023-03-22T06:44:26.767Z,13.99
2023-03-22T06:45:26.758Z,14.00
2023-03-22T06:46:26.809Z,14.18
2023-03-22T06:47:26.728Z,14.40
2023-03-22T06:48:26.767Z,14.66
2023-03-22T06:49:26.705Z,14.70
2023-03-22T06:50:26.706Z,14.89
2023-03-22T06:51:26.686Z,15.49
2023-03-22T06:52:26.675Z,15.77
2023-03-22T06:53:26.663Z,15.92
2023-03-22T06:54:26.689Z,16.39
2023-03-22T06:55:26.636Z,16.47
2023-03-22T06:56:26.635Z,16.64
2023-03-22T06:57:26.630Z,16.75
2023-03-22T06:58:26.622Z,17.01
2023-03-22T06:59:26.646Z,17.29
2023-03-22T07:00:26.585Z,17.67
2023-03-22T07:01:26.594Z,17.42
2023-03-22T07:02:26.568Z,17.57
2023-03-22T07:03:26.545Z,17.71
2023-03-22T07:04:26.576Z,17.80
2023-03-22T07:05:26.568Z,17.85
2023-03-22T07:06:26.526Z,17.79
2023-03-22T07:07:26.516Z,17.83
2023-03-22T07:08:26.497Z,17.87
2023-03-22T07:09:26.480Z,17.82
2023-03-22T07:10:26.527Z,17.80
2023-03-22T07:11:26.488Z,17.87
2023-03-22T07:12:26.467Z,18.44
2023-03-22T07:13:26.441Z,18.78
2023-03-22T07:14:26.432Z,18.71
2023-03-22T07:15:26.425Z,18.31
2023-03-22T07:16:26.557Z,18.45
2023-03-22T07:17:26.391Z,18.59
2023-03-22T07:18:26.386Z,18.62
2023-03-22T07:19:26.370Z,18.90
2023-03-22T07:20:26.362Z,18.83
2023-03-22T07:21:26.363Z,19.15
2023-03-22T07:22:26.358Z,18.84
2023-03-22T07:23:26.327Z,18.81
2023-03-22T07:24:26.309Z,18.65
2023-03-22T07:25:26.300Z,18.63
2023-03-22T07:26:26.293Z,18.29
2023-03-22T07:27:26.280Z,18.44
2023-03-22T07:28:26.291Z,18.62
2023-03-22T07:29:26.261Z,18.68
2023-03-22T07:30:26.241Z,18.34
2023-03-22T07:31:26.232Z,18.86
2023-03-22T07:32:26.261Z,18.88
2023-03-22T07:33:26.252Z,19.07
2023-03-22T07:34:26.514Z,19.14
2023-03-22T07:35:27.016Z,19.24
2023-03-22T07:36:26.173Z,18.99
2023-03-22T07:37:26.177Z,19.08
2023-03-22T07:38:26.169Z,18.92
2023-03-22T07:39:26.172Z,18.38
2023-03-22T07:40:26.147Z,18.43
2023-03-22T07:41:26.201Z,18.31
2023-03-22T07:42:26.123Z,18.47
2023-03-22T07:43:26.110Z,18.59
2023-03-22T07:44:26.089Z,18.38
2023-03-22T07:45:26.160Z,17.41
2023-03-22T07:46:26.137Z,17.09
2023-03-22T07:47:39.866Z,16.94
2023-03-22T07:48:27.062Z,17.38
2023-03-22T07:49:26.040Z,17.95
2023-03-22T07:50:26.031Z,18.53
2023-03-22T07:51:26.041Z,18.59
2023-03-22T07:52:26.012Z,18.37
2023-03-22T07:53:26.008Z,18.58
2023-03-22T07:54:33.432Z,18.50
2023-03-22T07:55:26.983Z,18.31
2023-03-22T07:56:25.966Z,18.52
2023-03-22T07:57:25.974Z,18.75
2023-03-22T07:58:25.954Z,19.00
2023-03-22T07:59:25.940Z,19.09
2023-03-22T08:00:25.935Z,19.67
2023-03-22T08:01:25.905Z,19.82
2023-03-22T08:02:25.961Z,19.81
2023-03-22T08:03:25.931Z,19.55
2023-03-22T08:04:25.880Z,18.99
2023-03-22T08:05:25.869Z,18.83
2023-03-22T08:06:25.858Z,18.99
2023-03-22T08:07:25.846Z,18.59
2023-03-22T08:08:25.872Z,18.33
2023-03-22T08:09:25.830Z,17.48
2023-03-22T08:10:25.806Z,16.83
2023-03-22T08:11:25.796Z,16.61
2023-03-22T08:12:25.787Z,16.65
2023-03-22T08:13:25.777Z,17.04
2023-03-22T08:14:36.052Z,17.16
2023-03-22T08:15:26.756Z,17.01
2023-03-22T08:16:25.789Z,17.11
2023-03-22T08:17:25.747Z,17.51
2023-03-22T08:18:25.717Z,17.82
2023-03-22T08:19:25.881Z,17.90
2023-03-22T08:20:25.727Z,17.85
2023-03-22T08:21:25.688Z,18.19
2023-03-22T08:22:25.670Z,18.15
2023-03-22T08:23:38.472Z,18.40
2023-03-22T08:24:26.646Z,18.49
2023-03-22T08:25:25.636Z,18.71
2023-03-22T08:26:25.647Z,19.33
2023-03-22T08:27:25.618Z,20.06
2023-03-22T08:28:25.608Z,20.37
2023-03-22T08:29:25.596Z,19.47
2023-03-22T08:30:25.580Z,18.92
2023-03-22T08:31:25.593Z,18.31
2023-03-22T08:32:25.582Z,17.42
2023-03-22T08:33:25.548Z,16.94
2023-03-22T08:34:25.556Z,16.72
2023-03-22T08:35:25.535Z,16.50
2023-03-22T08:36:25.522Z,16.46
2023-03-22T08:37:25.501Z,16.66
2023-03-22T08:38:25.508Z,16.78
2023-03-22T08:39:26.135Z,17.01
2023-03-22T08:40:25.507Z,16.58
2023-03-22T08:41:25.458Z,16.71
2023-03-22T08:42:25.449Z,16.99
2023-03-22T08:43:25.461Z,17.54
2023-03-22T08:44:25.428Z,17.45
2023-03-22T08:45:25.409Z,17.30
2023-03-22T08:46:25.441Z,16.93
2023-03-22T08:47:25.399Z,16.71
2023-03-22T08:48:25.493Z,16.46
2023-03-22T08:49:25.400Z,15.97
2023-03-22T08:50:25.403Z,15.68
2023-03-22T08:51:25.346Z,15.83
2023-03-22T08:52:25.337Z,15.67
2023-03-22T08:53:25.335Z,15.92
2023-03-22T08:54:25.313Z,15.82
2023-03-22T08:55:25.347Z,16.33
2023-03-22T08:56:25.279Z,16.49
2023-03-22T08:57:25.278Z,17.24
2023-03-22T08:58:25.266Z,17.64
2023-03-22T08:59:25.250Z,17.68
2023-03-22T09:00:25.269Z,17.76
2023-03-22T09:01:25.314Z,17.67
2023-03-22T09:02:25.302Z,17.67
2023-03-22T09:03:25.215Z,18.20
2023-03-22T09:04:25.219Z,18.15
2023-03-22T09:05:25.189Z,18.13
2023-03-22T09:06:25.171Z,18.34
2023-03-22T09:07:25.195Z,18.38
2023-03-22T09:08:25.167Z,17.98
2023-03-22T09:09:25.144Z,17.89
2023-03-22T09:10:25.220Z,17.86
2023-03-22T09:11:25.120Z,18.52
2023-03-22T09:12:25.114Z,19.36
2023-03-22T09:13:25.120Z,20.07
2023-03-22T09:14:25.086Z,20.67
2023-03-22T09:15:25.070Z,21.12
2023-03-22T09:16:25.125Z,21.15
2023-03-22T09:17:25.065Z,21.36
2023-03-22T09:18:25.042Z,21.17
2023-03-22T09:19:25.055Z,21.30
2023-03-22T09:20:25.021Z,21.48
2023-03-22T09:21:25.014Z,21.58
2023-03-22T09:22:24.996Z,21.05
2023-03-22T09:23:24.989Z,20.60
2023-03-22T09:24:25.007Z,20.78
2023-03-22T09:25:24.970Z,20.80
2023-03-22T09:26:24.944Z,20.29
2023-03-22T09:27:24.932Z,20.18
2023-03-22T09:28:24.965Z,19.92
2023-03-22T09:29:24.915Z,19.24
2023-03-22T09:30:24.923Z,18.99
2023-03-22T09:31:25.007Z,18.86
2023-03-22T09:32:24.887Z,18.77
2023-03-22T09:33:24.877Z,18.68
2023-03-22T09:34:24.854Z,18.52
2023-03-22T09:35:24.908Z,18.38
2023-03-22T09:36:24.863Z,18.41
2023-03-22T09:37:24.821Z,18.28
2023-03-22T09:38:24.811Z,18.34
2023-03-22T09:39:24.804Z,18.18
2023-03-22T09:40:24.790Z,17.87
2023-03-22T09:41:24.804Z,18.01
2023-03-22T09:42:24.780Z,18.04
2023-03-22T09:43:24.753Z,18.11
2023-03-22T09:44:24.748Z,18.28
2023-03-22T09:45:24.743Z,18.08
2023-03-22T09:46:24.861Z,17.89
2023-03-22T09:47:28.718Z,18.04
2023-03-22T09:48:25.724Z,18.33
2023-03-22T09:49:24.705Z,18.80
2023-03-22T09:50:24.675Z,19.12
2023-03-22T09:51:24.669Z,19.24
2023-03-22T09:52:24.694Z,19.39
2023-03-22T09:53:24.685Z,19.64
2023-03-22T09:54:24.629Z,19.44
2023-03-22T09:55:24.626Z,19.33
2023-03-22T09:56:24.615Z,19.18
2023-03-22T09:57:24.604Z,19.26
2023-03-22T09:58:24.638Z,18.93
2023-03-22T09:59:31.634Z,18.62
2023-03-22T10:00:24.599Z,18.59
2023-03-22T10:01:24.722Z,18.77
2023-03-22T10:02:24.600Z,18.83
2023-03-22T10:03:24.525Z,18.89
2023-03-22T10:04:24.616Z,19.00
2023-03-22T10:05:24.514Z,18.80
2023-03-22T10:06:24.486Z,18.59
2023-03-22T10:07:24.478Z,18.55
2023-03-22T10:08:24.456Z,18.55
2023-03-22T10:09:24.456Z,18.60
2023-03-22T10:10:24.489Z,18.56
2023-03-22T10:11:24.424Z,18.62
2023-03-22T10:12:24.419Z,18.93
2023-03-22T10:13:24.415Z,18.90
2023-03-22T10:14:24.398Z,18.83
2023-03-22T10:15:24.428Z,18.86
2023-03-22T10:16:24.450Z,18.93
2023-03-22T10:17:24.392Z,18.99
2023-03-22T10:18:24.405Z,19.02
2023-03-22T10:19:24.404Z,19.04
2023-03-22T10:20:24.327Z,19.08
2023-03-22T10:21:24.402Z,18.77
2023-03-22T10:22:24.305Z,18.80
2023-03-22T10:23:24.308Z,18.59
2023-03-22T10:24:24.279Z,18.83
2023-03-22T10:25:24.285Z,18.92
2023-03-22T10:26:24.266Z,19.07
2023-03-22T10:27:24.276Z,19.11
2023-03-22T10:28:24.335Z,18.90
2023-03-22T10:29:24.228Z,18.78
2023-03-22T10:30:24.225Z,18.68
2023-03-22T10:31:24.234Z,18.66
2023-03-22T10:32:24.187Z,18.15
2023-03-22T10:33:24.209Z,18.19
2023-03-22T10:34:24.168Z,18.20
2023-03-22T10:35:24.199Z,18.26
2023-03-22T10:36:24.154Z,17.95
2023-03-22T10:37:24.138Z,17.94
2023-03-22T10:38:24.140Z,18.03
2023-03-22T10:39:24.151Z,17.80
2023-03-22T10:40:24.116Z,17.79
2023-03-22T10:41:24.102Z,17.89
2023-03-22T10:42:24.086Z,17.85
2023-03-22T10:43:24.078Z,17.85
2023-03-22T10:44:24.108Z,18.10
2023-03-22T10:45:24.050Z,18.23
2023-03-22T10:46:24.062Z,18.22
2023-03-22T10:47:24.031Z,18.31
2023-03-22T10:48:24.047Z,18.04
2023-03-22T10:49:24.022Z,17.86
2023-03-22T10:50:24.021Z,18.01
2023-03-22T10:51:23.991Z,18.22
2023-03-22T10:52:24.017Z,18.43
2023-03-22T10:53:23.976Z,18.56
2023-03-22T10:54:25.745Z,18.80
2023-03-22T10:55:23.964Z,18.81
2023-03-22T10:56:23.933Z,18.83
2023-03-22T10:57:23.926Z,18.58
2023-03-22T10:58:23.904Z,18.73
2023-03-22T10:59:23.905Z,18.84
2023-03-22T11:00:23.929Z,18.81
2023-03-22T11:01:24.085Z,18.90
2023-03-22T11:02:23.969Z,18.65
2023-03-22T11:03:23.866Z,18.73
2023-03-22T11:04:23.845Z,19.00
2023-03-22T11:05:23.862Z,19.08
2023-03-22T11:06:23.829Z,19.15
2023-03-22T11:07:23.856Z,19.12
2023-03-22T11:08:23.808Z,19.21
2023-03-22T11:09:23.819Z,19.07
2023-03-22T11:10:23.826Z,19.19
2023-03-22T11:11:23.776Z,19.11
2023-03-22T11:12:23.767Z,19.19
2023-03-22T11:13:23.787Z,19.12
2023-03-22T11:14:23.747Z,19.27
2023-03-22T11:15:23.736Z,19.47
2023-03-22T11:16:23.828Z,19.70
2023-03-22T11:17:23.708Z,19.91
2023-03-22T11:18:23.696Z,19.49
2023-03-22T11:19:23.707Z,19.14
2023-03-22T11:20:23.703Z,19.48
2023-03-22T11:21:23.684Z,20.04
2023-03-22T11:22:23.651Z,20.13
2023-03-22T11:23:23.635Z,19.96
2023-03-22T11:24:23.646Z,20.10
2023-03-22T11:25:23.615Z,20.26
2023-03-22T11:26:26.423Z,20.22
2023-03-22T11:27:23.587Z,20.36
2023-03-22T11:28:23.576Z,20.60
2023-03-22T11:29:23.581Z,20.58
2023-03-22T11:30:23.569Z,20.32
2023-03-22T11:31:23.558Z,19.85
2023-03-22T11:32:23.569Z,19.59
2023-03-22T11:33:23.517Z,19.79
2023-03-22T11:34:23.535Z,19.94
2023-03-22T11:35:23.577Z,19.85
2023-03-22T11:36:23.501Z,20.04
2023-03-22T11:37:23.480Z,20.19
2023-03-22T11:38:23.478Z,20.39
2023-03-22T11:39:23.451Z,20.65
2023-03-22T11:40:23.468Z,20.65
2023-03-22T11:41:23.463Z,20.63
2023-03-22T11:42:23.421Z,20.62
2023-03-22T11:43:23.410Z,20.36
2023-03-22T11:44:23.399Z,20.26
2023-03-22T11:45:23.380Z,20.24
2023-03-22T11:46:23.454Z,20.52
2023-03-22T11:47:23.402Z,20.40
2023-03-22T11:48:23.451Z,19.96
2023-03-22T11:49:23.331Z,20.00
2023-03-22T11:50:23.331Z,20.04
2023-03-22T11:51:23.311Z,19.96
2023-03-22T11:52:23.335Z,20.07
2023-03-22T11:53:23.296Z,20.09
2023-03-22T11:54:23.292Z,19.95
2023-03-22T11:55:23.264Z,19.81
2023-03-22T11:56:23.251Z,19.94
2023-03-22T11:57:23.243Z,20.14
2023-03-22T11:58:24.097Z,20.16
2023-03-22T11:59:23.225Z,20.13
2023-03-22T12:00:23.229Z,20.25
2023-03-22T12:01:23.202Z,20.48
2023-03-22T12:02:23.278Z,20.44
2023-03-22T12:03:23.263Z,20.58
2023-03-22T12:04:23.224Z,20.44
2023-03-22T12:05:23.239Z,20.55
2023-03-22T12:06:23.242Z,20.72
2023-03-22T12:07:23.133Z,20.77
2023-03-22T12:08:23.122Z,20.74
2023-03-22T12:09:23.131Z,20.63
2023-03-22T12:10:23.131Z,20.62
2023-03-22T12:11:23.081Z,20.81
2023-03-22T12:12:23.082Z,20.88
2023-03-22T12:13:23.069Z,21.03
2023-03-22T12:14:23.075Z,21.35
2023-03-22T12:15:23.121Z,21.62
2023-03-22T12:16:24.751Z,21.73
2023-03-22T12:17:23.014Z,21.70
2023-03-22T12:18:23.056Z,21.12
2023-03-22T12:19:22.996Z,20.85
2023-03-22T12:20:23.062Z,20.55
2023-03-22T12:21:22.985Z,20.40
2023-03-22T12:22:22.959Z,20.48
2023-03-22T12:23:22.949Z,20.66
2023-03-22T12:24:22.928Z,20.74
2023-03-22T12:25:22.920Z,20.70
2023-03-22T12:26:22.942Z,20.80
2023-03-22T12:27:22.894Z,20.47
2023-03-22T12:28:22.889Z,20.66
2023-03-22T12:29:22.871Z,20.84
2023-03-22T12:30:22.871Z,21.17
2023-03-22T12:31:22.900Z,21.15
2023-03-22T12:32:22.903Z,21.18
2023-03-22T12:33:22.832Z,21.15
2023-03-22T12:34:22.828Z,21.05
2023-03-22T12:35:22.798Z,20.95
2023-03-22T12:36:22.843Z,21.09
2023-03-22T12:37:22.777Z,21.24
2023-03-22T12:38:22.803Z,21.35
2023-03-22T12:39:22.759Z,21.30
2023-03-22T12:40:22.746Z,21.21
2023-03-22T12:41:22.749Z,21.29
2023-03-22T12:42:22.747Z,21.43
2023-03-22T12:43:22.719Z,21.66
2023-03-22T12:44:22.733Z,21.73
2023-03-22T12:45:22.689Z,21.51
2023-03-22T12:46:22.716Z,21.43
2023-03-22T12:47:22.711Z,21.29
2023-03-22T12:48:22.740Z,20.95
2023-03-22T12:49:22.655Z,20.84
2023-03-22T12:50:22.911Z,20.90
2023-03-22T12:51:22.623Z,21.02
2023-03-22T12:52:22.622Z,20.93
2023-03-22T12:53:22.602Z,20.95
2023-03-22T12:54:22.592Z,20.88